<?xml version="1.0" encoding="UTF-8"?>
<gpx version="1.1" creator="GPSBabel - https://www.gpsbabel.org" xmlns="http://www.topografix.com/GPX/1/1" xmlns:xsi="http://www.w3.org/2001/XMLSchema-instance">
  <metadata>
    <name>Bike to Bahnhof</name>
    <link href="https://www.strava.com/activities/19924317519"/>
    <time>2026-09-02T16:27:56.504Z</time>
    <keywords>activities:19924317519</keywords>
    <bounds minlat="48.815641000" minlon="10.094928000" maxlat="48.838292000" maxlon="10.199506000"/>
  </metadata>
  <trk>
    <name>Bike to Bahnhof</name>
    <trkseg>
      <trkpt lat="48.822154000" lon="10.199506000">
        <ele>609.300</ele>
        <time>2026-08-27T15:22:09Z</time>
      </trkpt>
      <trkpt lat="48.822339000" lon="10.199230000">
        <ele>609.700</ele>
        <time>2026-08-27T15:22:13Z</time>
      </trkpt>
      <trkpt lat="48.822401000" lon="10.199076000">
        <ele>609.900</ele>
        <time>2026-08-27T15:22:15Z</time>
      </trkpt>
      <trkpt lat="48.822492000" lon="10.198948000">
        <ele>610.000</ele>
        <time>2026-08-27T15:22:17Z</time>
      </trkpt>
      <trkpt lat="48.822569000" lon="10.198791000">
        <ele>610.100</ele>
        <time>2026-08-27T15:22:19Z</time>
      </trkpt>
      <trkpt lat="48.822686000" lon="10.198466000">
        <ele>610.200</ele>
        <time>2026-08-27T15:22:23Z</time>
      </trkpt>
      <trkpt lat="48.822772000" lon="10.198131000">
        <ele>610.400</ele>
        <time>2026-08-27T15:22:27Z</time>
      </trkpt>
      <trkpt lat="48.822836000" lon="10.197792000">
        <ele>610.700</ele>
        <time>2026-08-27T15:22:31Z</time>
      </trkpt>
      <trkpt lat="48.823179000" lon="10.196269000">
        <ele>612.100</ele>
        <time>2026-08-27T15:22:49Z</time>
      </trkpt>
      <trkpt lat="48.823195000" lon="10.196118000">
        <ele>612.300</ele>
        <time>2026-08-27T15:22:51Z</time>
      </trkpt>
      <trkpt lat="48.823266000" lon="10.195814000">
        <ele>612.600</ele>
        <time>2026-08-27T15:22:55Z</time>
      </trkpt>
      <trkpt lat="48.823293000" lon="10.195655000">
        <ele>612.800</ele>
        <time>2026-08-27T15:22:57Z</time>
      </trkpt>
      <trkpt lat="48.823338000" lon="10.195500000">
        <ele>613.000</ele>
        <time>2026-08-27T15:22:59Z</time>
      </trkpt>
      <trkpt lat="48.823468000" lon="10.195236000">
        <ele>613.600</ele>
        <time>2026-08-27T15:23:03Z</time>
      </trkpt>
      <trkpt lat="48.823608000" lon="10.195041000">
        <ele>614.200</ele>
        <time>2026-08-27T15:23:07Z</time>
      </trkpt>
      <trkpt lat="48.823693000" lon="10.194965000">
        <ele>614.500</ele>
        <time>2026-08-27T15:23:09Z</time>
      </trkpt>
      <trkpt lat="48.823786000" lon="10.194910000">
        <ele>614.800</ele>
        <time>2026-08-27T15:23:11Z</time>
      </trkpt>
      <trkpt lat="48.823851000" lon="10.194819000">
        <ele>615.200</ele>
        <time>2026-08-27T15:23:13Z</time>
      </trkpt>
      <trkpt lat="48.823936000" lon="10.194782000">
        <ele>615.400</ele>
        <time>2026-08-27T15:23:15Z</time>
      </trkpt>
      <trkpt lat="48.824007000" lon="10.194718000">
        <ele>615.700</ele>
        <time>2026-08-27T15:23:17Z</time>
      </trkpt>
      <trkpt lat="48.824033000" lon="10.194572000">
        <ele>615.300</ele>
        <time>2026-08-27T15:23:20Z</time>
      </trkpt>
      <trkpt lat="48.823929000" lon="10.194368000">
        <ele>614.500</ele>
        <time>2026-08-27T15:23:24Z</time>
      </trkpt>
      <trkpt lat="48.823667000" lon="10.193764000">
        <ele>613.100</ele>
        <time>2026-08-27T15:23:34Z</time>
      </trkpt>
      <trkpt lat="48.823369000" lon="10.192952000">
        <ele>612.600</ele>
        <time>2026-08-27T15:23:44Z</time>
      </trkpt>
      <trkpt lat="48.823301000" lon="10.192806000">
        <ele>612.600</ele>
        <time>2026-08-27T15:23:46Z</time>
      </trkpt>
      <trkpt lat="48.823248000" lon="10.192659000">
        <ele>612.700</ele>
        <time>2026-08-27T15:23:48Z</time>
      </trkpt>
      <trkpt lat="48.823116000" lon="10.192215000">
        <ele>614.200</ele>
        <time>2026-08-27T15:23:54Z</time>
      </trkpt>
      <trkpt lat="48.823120000" lon="10.192105000">
        <ele>614.800</ele>
        <time>2026-08-27T15:23:56Z</time>
      </trkpt>
      <trkpt lat="48.823211000" lon="10.192025000">
        <ele>615.000</ele>
        <time>2026-08-27T15:23:58Z</time>
      </trkpt>
      <trkpt lat="48.823317000" lon="10.192009000">
        <ele>615.000</ele>
        <time>2026-08-27T15:24:00Z</time>
      </trkpt>
      <trkpt lat="48.823403000" lon="10.191952000">
        <ele>615.000</ele>
        <time>2026-08-27T15:24:02Z</time>
      </trkpt>
      <trkpt lat="48.823348000" lon="10.191815000">
        <ele>615.000</ele>
        <time>2026-08-27T15:24:04Z</time>
      </trkpt>
      <trkpt lat="48.823232000" lon="10.191610000">
        <ele>615.200</ele>
        <time>2026-08-27T15:24:08Z</time>
      </trkpt>
      <trkpt lat="48.823124000" lon="10.191358000">
        <ele>615.300</ele>
        <time>2026-08-27T15:24:12Z</time>
      </trkpt>
      <trkpt lat="48.823062000" lon="10.191247000">
        <ele>615.400</ele>
        <time>2026-08-27T15:24:14Z</time>
      </trkpt>
      <trkpt lat="48.822890000" lon="10.190735000">
        <ele>615.800</ele>
        <time>2026-08-27T15:24:22Z</time>
      </trkpt>
      <trkpt lat="48.822859000" lon="10.190611000">
        <ele>615.900</ele>
        <time>2026-08-27T15:24:24Z</time>
      </trkpt>
      <trkpt lat="48.822802000" lon="10.190461000">
        <ele>616.200</ele>
        <time>2026-08-27T15:24:26Z</time>
      </trkpt>
      <trkpt lat="48.822776000" lon="10.190324000">
        <ele>616.300</ele>
        <time>2026-08-27T15:24:28Z</time>
      </trkpt>
      <trkpt lat="48.822763000" lon="10.190186000">
        <ele>616.500</ele>
        <time>2026-08-27T15:24:30Z</time>
      </trkpt>
      <trkpt lat="48.822622000" lon="10.189516000">
        <ele>617.100</ele>
        <time>2026-08-27T15:24:40Z</time>
      </trkpt>
      <trkpt lat="48.822600000" lon="10.189064000">
        <ele>617.600</ele>
        <time>2026-08-27T15:24:46Z</time>
      </trkpt>
      <trkpt lat="48.822606000" lon="10.188903000">
        <ele>617.700</ele>
        <time>2026-08-27T15:24:48Z</time>
      </trkpt>
      <trkpt lat="48.822593000" lon="10.188459000">
        <ele>618.300</ele>
        <time>2026-08-27T15:24:54Z</time>
      </trkpt>
      <trkpt lat="48.822620000" lon="10.188052000">
        <ele>619.100</ele>
        <time>2026-08-27T15:25:00Z</time>
      </trkpt>
      <trkpt lat="48.822640000" lon="10.187924000">
        <ele>619.300</ele>
        <time>2026-08-27T15:25:02Z</time>
      </trkpt>
      <trkpt lat="48.822703000" lon="10.186863000">
        <ele>622.200</ele>
        <time>2026-08-27T15:25:18Z</time>
      </trkpt>
      <trkpt lat="48.822695000" lon="10.186388000">
        <ele>623.700</ele>
        <time>2026-08-27T15:25:26Z</time>
      </trkpt>
      <trkpt lat="48.822581000" lon="10.185685000">
        <ele>626.500</ele>
        <time>2026-08-27T15:25:39Z</time>
      </trkpt>
      <trkpt lat="48.822384000" lon="10.184990000">
        <ele>628.800</ele>
        <time>2026-08-27T15:25:52Z</time>
      </trkpt>
      <trkpt lat="48.822313000" lon="10.184780000">
        <ele>629.500</ele>
        <time>2026-08-27T15:25:56Z</time>
      </trkpt>
      <trkpt lat="48.822242000" lon="10.184469000">
        <ele>630.400</ele>
        <time>2026-08-27T15:26:02Z</time>
      </trkpt>
      <trkpt lat="48.821971000" lon="10.183675000">
        <ele>633.000</ele>
        <time>2026-08-27T15:26:16Z</time>
      </trkpt>
      <trkpt lat="48.821845000" lon="10.183349000">
        <ele>634.300</ele>
        <time>2026-08-27T15:26:22Z</time>
      </trkpt>
      <trkpt lat="48.821802000" lon="10.183126000">
        <ele>635.100</ele>
        <time>2026-08-27T15:26:26Z</time>
      </trkpt>
      <trkpt lat="48.821690000" lon="10.182784000">
        <ele>636.400</ele>
        <time>2026-08-27T15:26:32Z</time>
      </trkpt>
      <trkpt lat="48.821525000" lon="10.181952000">
        <ele>636.300</ele>
        <time>2026-08-27T15:26:44Z</time>
      </trkpt>
      <trkpt lat="48.821468000" lon="10.181720000">
        <ele>636.300</ele>
        <time>2026-08-27T15:26:48Z</time>
      </trkpt>
      <trkpt lat="48.821410000" lon="10.181322000">
        <ele>636.500</ele>
        <time>2026-08-27T15:26:55Z</time>
      </trkpt>
      <trkpt lat="48.821323000" lon="10.180924000">
        <ele>638.000</ele>
        <time>2026-08-27T15:27:03Z</time>
      </trkpt>
      <trkpt lat="48.821237000" lon="10.180645000">
        <ele>639.300</ele>
        <time>2026-08-27T15:27:09Z</time>
      </trkpt>
      <trkpt lat="48.821188000" lon="10.180213000">
        <ele>641.200</ele>
        <time>2026-08-27T15:27:17Z</time>
      </trkpt>
      <trkpt lat="48.821108000" lon="10.179845000">
        <ele>643.100</ele>
        <time>2026-08-27T15:27:26Z</time>
      </trkpt>
      <trkpt lat="48.820988000" lon="10.179475000">
        <ele>645.000</ele>
        <time>2026-08-27T15:27:37Z</time>
      </trkpt>
      <trkpt lat="48.820832000" lon="10.179133000">
        <ele>647.100</ele>
        <time>2026-08-27T15:27:49Z</time>
      </trkpt>
      <trkpt lat="48.820759000" lon="10.179039000">
        <ele>647.800</ele>
        <time>2026-08-27T15:27:53Z</time>
      </trkpt>
      <trkpt lat="48.820583000" lon="10.178744000">
        <ele>649.600</ele>
        <time>2026-08-27T15:28:02Z</time>
      </trkpt>
      <trkpt lat="48.820453000" lon="10.178589000">
        <ele>650.700</ele>
        <time>2026-08-27T15:28:08Z</time>
      </trkpt>
      <trkpt lat="48.820378000" lon="10.178520000">
        <ele>651.200</ele>
        <time>2026-08-27T15:28:11Z</time>
      </trkpt>
      <trkpt lat="48.820255000" lon="10.178366000">
        <ele>652.300</ele>
        <time>2026-08-27T15:28:17Z</time>
      </trkpt>
      <trkpt lat="48.820106000" lon="10.178207000">
        <ele>653.600</ele>
        <time>2026-08-27T15:28:24Z</time>
      </trkpt>
      <trkpt lat="48.819971000" lon="10.177927000">
        <ele>655.400</ele>
        <time>2026-08-27T15:28:33Z</time>
      </trkpt>
      <trkpt lat="48.819716000" lon="10.177178000">
        <ele>660.500</ele>
        <time>2026-08-27T15:28:56Z</time>
      </trkpt>
      <trkpt lat="48.819512000" lon="10.176393000">
        <ele>664.600</ele>
        <time>2026-08-27T15:29:17Z</time>
      </trkpt>
      <trkpt lat="48.819439000" lon="10.176178000">
        <ele>665.400</ele>
        <time>2026-08-27T15:29:23Z</time>
      </trkpt>
      <trkpt lat="48.819272000" lon="10.175906000">
        <ele>666.300</ele>
        <time>2026-08-27T15:29:34Z</time>
      </trkpt>
      <trkpt lat="48.819222000" lon="10.175792000">
        <ele>666.600</ele>
        <time>2026-08-27T15:29:37Z</time>
      </trkpt>
      <trkpt lat="48.819138000" lon="10.175529000">
        <ele>667.200</ele>
        <time>2026-08-27T15:29:43Z</time>
      </trkpt>
      <trkpt lat="48.819068000" lon="10.175257000">
        <ele>667.700</ele>
        <time>2026-08-27T15:29:49Z</time>
      </trkpt>
      <trkpt lat="48.818992000" lon="10.174820000">
        <ele>668.100</ele>
        <time>2026-08-27T15:29:57Z</time>
      </trkpt>
      <trkpt lat="48.818986000" lon="10.174708000">
        <ele>668.100</ele>
        <time>2026-08-27T15:29:59Z</time>
      </trkpt>
      <trkpt lat="48.818955000" lon="10.174607000">
        <ele>668.100</ele>
        <time>2026-08-27T15:30:01Z</time>
      </trkpt>
      <trkpt lat="48.818952000" lon="10.174494000">
        <ele>667.900</ele>
        <time>2026-08-27T15:30:03Z</time>
      </trkpt>
      <trkpt lat="48.818917000" lon="10.174322000">
        <ele>667.600</ele>
        <time>2026-08-27T15:30:06Z</time>
      </trkpt>
      <trkpt lat="48.818891000" lon="10.174118000">
        <ele>667.100</ele>
        <time>2026-08-27T15:30:08Z</time>
      </trkpt>
      <trkpt lat="48.818966000" lon="10.173590000">
        <ele>665.600</ele>
        <time>2026-08-27T15:30:09Z</time>
      </trkpt>
      <trkpt lat="48.818904000" lon="10.173401000">
        <ele>664.900</ele>
        <time>2026-08-27T15:30:11Z</time>
      </trkpt>
      <trkpt lat="48.818803000" lon="10.172976000">
        <ele>663.500</ele>
        <time>2026-08-27T15:30:15Z</time>
      </trkpt>
      <trkpt lat="48.818786000" lon="10.172744000">
        <ele>662.600</ele>
        <time>2026-08-27T15:30:17Z</time>
      </trkpt>
      <trkpt lat="48.818705000" lon="10.172224000">
        <ele>658.700</ele>
        <time>2026-08-27T15:30:22Z</time>
      </trkpt>
      <trkpt lat="48.818701000" lon="10.171991000">
        <ele>656.900</ele>
        <time>2026-08-27T15:30:24Z</time>
      </trkpt>
      <trkpt lat="48.818664000" lon="10.171769000">
        <ele>655.200</ele>
        <time>2026-08-27T15:30:26Z</time>
      </trkpt>
      <trkpt lat="48.818730000" lon="10.171507000">
        <ele>653.400</ele>
        <time>2026-08-27T15:30:28Z</time>
      </trkpt>
      <trkpt lat="48.818766000" lon="10.171230000">
        <ele>651.800</ele>
        <time>2026-08-27T15:30:30Z</time>
      </trkpt>
      <trkpt lat="48.818816000" lon="10.171070000">
        <ele>650.700</ele>
        <time>2026-08-27T15:30:31Z</time>
      </trkpt>
      <trkpt lat="48.818831000" lon="10.170872000">
        <ele>649.500</ele>
        <time>2026-08-27T15:30:32Z</time>
      </trkpt>
      <trkpt lat="48.818884000" lon="10.170720000">
        <ele>648.500</ele>
        <time>2026-08-27T15:30:33Z</time>
      </trkpt>
      <trkpt lat="48.818905000" lon="10.170544000">
        <ele>647.400</ele>
        <time>2026-08-27T15:30:34Z</time>
      </trkpt>
      <trkpt lat="48.818981000" lon="10.170429000">
        <ele>646.500</ele>
        <time>2026-08-27T15:30:35Z</time>
      </trkpt>
      <trkpt lat="48.819106000" lon="10.170147000">
        <ele>645.000</ele>
        <time>2026-08-27T15:30:37Z</time>
      </trkpt>
      <trkpt lat="48.819234000" lon="10.169746000">
        <ele>643.600</ele>
        <time>2026-08-27T15:30:40Z</time>
      </trkpt>
      <trkpt lat="48.819404000" lon="10.169315000">
        <ele>641.200</ele>
        <time>2026-08-27T15:30:44Z</time>
      </trkpt>
      <trkpt lat="48.819436000" lon="10.169190000">
        <ele>640.400</ele>
        <time>2026-08-27T15:30:45Z</time>
      </trkpt>
      <trkpt lat="48.819543000" lon="10.168958000">
        <ele>638.500</ele>
        <time>2026-08-27T15:30:47Z</time>
      </trkpt>
      <trkpt lat="48.819698000" lon="10.168445000">
        <ele>635.200</ele>
        <time>2026-08-27T15:30:51Z</time>
      </trkpt>
      <trkpt lat="48.819850000" lon="10.168083000">
        <ele>633.000</ele>
        <time>2026-08-27T15:30:54Z</time>
      </trkpt>
      <trkpt lat="48.819893000" lon="10.167954000">
        <ele>632.200</ele>
        <time>2026-08-27T15:30:55Z</time>
      </trkpt>
      <trkpt lat="48.819950000" lon="10.167827000">
        <ele>631.300</ele>
        <time>2026-08-27T15:30:56Z</time>
      </trkpt>
      <trkpt lat="48.819987000" lon="10.167690000">
        <ele>630.400</ele>
        <time>2026-08-27T15:30:57Z</time>
      </trkpt>
      <trkpt lat="48.820052000" lon="10.167562000">
        <ele>629.600</ele>
        <time>2026-08-27T15:30:58Z</time>
      </trkpt>
      <trkpt lat="48.820136000" lon="10.167268000">
        <ele>627.900</ele>
        <time>2026-08-27T15:31:00Z</time>
      </trkpt>
      <trkpt lat="48.820196000" lon="10.166964000">
        <ele>626.200</ele>
        <time>2026-08-27T15:31:02Z</time>
      </trkpt>
      <trkpt lat="48.820380000" lon="10.166491000">
        <ele>623.600</ele>
        <time>2026-08-27T15:31:06Z</time>
      </trkpt>
      <trkpt lat="48.820390000" lon="10.166354000">
        <ele>622.900</ele>
        <time>2026-08-27T15:31:07Z</time>
      </trkpt>
      <trkpt lat="48.820425000" lon="10.166222000">
        <ele>622.200</ele>
        <time>2026-08-27T15:31:08Z</time>
      </trkpt>
      <trkpt lat="48.820447000" lon="10.166066000">
        <ele>621.500</ele>
        <time>2026-08-27T15:31:09Z</time>
      </trkpt>
      <trkpt lat="48.820465000" lon="10.165632000">
        <ele>620.100</ele>
        <time>2026-08-27T15:31:12Z</time>
      </trkpt>
      <trkpt lat="48.820448000" lon="10.165476000">
        <ele>619.700</ele>
        <time>2026-08-27T15:31:13Z</time>
      </trkpt>
      <trkpt lat="48.820445000" lon="10.165207000">
        <ele>619.200</ele>
        <time>2026-08-27T15:31:15Z</time>
      </trkpt>
      <trkpt lat="48.820367000" lon="10.165052000">
        <ele>619.100</ele>
        <time>2026-08-27T15:31:17Z</time>
      </trkpt>
      <trkpt lat="48.820326000" lon="10.164887000">
        <ele>619.100</ele>
        <time>2026-08-27T15:31:19Z</time>
      </trkpt>
      <trkpt lat="48.820333000" lon="10.164716000">
        <ele>619.200</ele>
        <time>2026-08-27T15:31:21Z</time>
      </trkpt>
      <trkpt lat="48.820290000" lon="10.164019000">
        <ele>619.900</ele>
        <time>2026-08-27T15:31:29Z</time>
      </trkpt>
      <trkpt lat="48.820250000" lon="10.163850000">
        <ele>618.100</ele>
        <time>2026-08-27T15:31:31Z</time>
      </trkpt>
      <trkpt lat="48.820259000" lon="10.163722000">
        <ele>617.300</ele>
        <time>2026-08-27T15:31:32Z</time>
      </trkpt>
      <trkpt lat="48.820186000" lon="10.163343000">
        <ele>614.400</ele>
        <time>2026-08-27T15:31:35Z</time>
      </trkpt>
      <trkpt lat="48.820071000" lon="10.163038000">
        <ele>610.200</ele>
        <time>2026-08-27T15:31:38Z</time>
      </trkpt>
      <trkpt lat="48.820036000" lon="10.162787000">
        <ele>607.800</ele>
        <time>2026-08-27T15:31:40Z</time>
      </trkpt>
      <trkpt lat="48.819973000" lon="10.162720000">
        <ele>605.500</ele>
        <time>2026-08-27T15:31:41Z</time>
      </trkpt>
      <trkpt lat="48.819923000" lon="10.162637000">
        <ele>604.100</ele>
        <time>2026-08-27T15:31:42Z</time>
      </trkpt>
      <trkpt lat="48.819822000" lon="10.162418000">
        <ele>600.400</ele>
        <time>2026-08-27T15:31:44Z</time>
      </trkpt>
      <trkpt lat="48.819720000" lon="10.162109000">
        <ele>596.100</ele>
        <time>2026-08-27T15:31:46Z</time>
      </trkpt>
      <trkpt lat="48.819671000" lon="10.161836000">
        <ele>593.300</ele>
        <time>2026-08-27T15:31:49Z</time>
      </trkpt>
      <trkpt lat="48.819692000" lon="10.161456000">
        <ele>592.100</ele>
        <time>2026-08-27T15:31:52Z</time>
      </trkpt>
      <trkpt lat="48.819753000" lon="10.161056000">
        <ele>591.800</ele>
        <time>2026-08-27T15:31:55Z</time>
      </trkpt>
      <trkpt lat="48.819888000" lon="10.160446000">
        <ele>591.600</ele>
        <time>2026-08-27T15:32:00Z</time>
      </trkpt>
      <trkpt lat="48.819992000" lon="10.160298000">
        <ele>591.500</ele>
        <time>2026-08-27T15:32:01Z</time>
      </trkpt>
      <trkpt lat="48.820051000" lon="10.160118000">
        <ele>591.300</ele>
        <time>2026-08-27T15:32:03Z</time>
      </trkpt>
      <trkpt lat="48.820122000" lon="10.160023000">
        <ele>591.200</ele>
        <time>2026-08-27T15:32:04Z</time>
      </trkpt>
      <trkpt lat="48.820154000" lon="10.159868000">
        <ele>591.200</ele>
        <time>2026-08-27T15:32:06Z</time>
      </trkpt>
      <trkpt lat="48.820148000" lon="10.159754000">
        <ele>592.800</ele>
        <time>2026-08-27T15:32:10Z</time>
      </trkpt>
      <trkpt lat="48.820203000" lon="10.159674000">
        <ele>594.400</ele>
        <time>2026-08-27T15:32:18Z</time>
      </trkpt>
      <trkpt lat="48.820238000" lon="10.159420000">
        <ele>598.400</ele>
        <time>2026-08-27T15:32:44Z</time>
      </trkpt>
      <trkpt lat="48.820274000" lon="10.159312000">
        <ele>600.100</ele>
        <time>2026-08-27T15:32:48Z</time>
      </trkpt>
      <trkpt lat="48.820301000" lon="10.159084000">
        <ele>603.200</ele>
        <time>2026-08-27T15:33:00Z</time>
      </trkpt>
      <trkpt lat="48.820299000" lon="10.158970000">
        <ele>604.700</ele>
        <time>2026-08-27T15:33:07Z</time>
      </trkpt>
      <trkpt lat="48.820266000" lon="10.158860000">
        <ele>606.300</ele>
        <time>2026-08-27T15:33:14Z</time>
      </trkpt>
      <trkpt lat="48.820258000" lon="10.158746000">
        <ele>607.800</ele>
        <time>2026-08-27T15:33:24Z</time>
      </trkpt>
      <trkpt lat="48.820290000" lon="10.158642000">
        <ele>609.400</ele>
        <time>2026-08-27T15:33:35Z</time>
      </trkpt>
      <trkpt lat="48.820286000" lon="10.158523000">
        <ele>610.100</ele>
        <time>2026-08-27T15:34:00Z</time>
      </trkpt>
      <trkpt lat="48.820339000" lon="10.158408000">
        <ele>607.300</ele>
        <time>2026-08-27T15:34:05Z</time>
      </trkpt>
      <trkpt lat="48.820244000" lon="10.158482000">
        <ele>605.600</ele>
        <time>2026-08-27T15:34:11Z</time>
      </trkpt>
      <trkpt lat="48.820120000" lon="10.158428000">
        <ele>604.400</ele>
        <time>2026-08-27T15:34:13Z</time>
      </trkpt>
      <trkpt lat="48.819974000" lon="10.158332000">
        <ele>603.000</ele>
        <time>2026-08-27T15:34:15Z</time>
      </trkpt>
      <trkpt lat="48.819745000" lon="10.158213000">
        <ele>600.700</ele>
        <time>2026-08-27T15:34:18Z</time>
      </trkpt>
      <trkpt lat="48.819524000" lon="10.157991000">
        <ele>598.000</ele>
        <time>2026-08-27T15:34:22Z</time>
      </trkpt>
      <trkpt lat="48.819474000" lon="10.157895000">
        <ele>597.200</ele>
        <time>2026-08-27T15:34:23Z</time>
      </trkpt>
      <trkpt lat="48.819459000" lon="10.157774000">
        <ele>596.300</ele>
        <time>2026-08-27T15:34:24Z</time>
      </trkpt>
      <trkpt lat="48.819390000" lon="10.157697000">
        <ele>595.400</ele>
        <time>2026-08-27T15:34:25Z</time>
      </trkpt>
      <trkpt lat="48.819275000" lon="10.157505000">
        <ele>593.500</ele>
        <time>2026-08-27T15:34:27Z</time>
      </trkpt>
      <trkpt lat="48.819186000" lon="10.157258000">
        <ele>591.500</ele>
        <time>2026-08-27T15:34:29Z</time>
      </trkpt>
      <trkpt lat="48.819105000" lon="10.156975000">
        <ele>589.300</ele>
        <time>2026-08-27T15:34:31Z</time>
      </trkpt>
      <trkpt lat="48.819088000" lon="10.156808000">
        <ele>588.200</ele>
        <time>2026-08-27T15:34:32Z</time>
      </trkpt>
      <trkpt lat="48.819054000" lon="10.156643000">
        <ele>587.100</ele>
        <time>2026-08-27T15:34:33Z</time>
      </trkpt>
      <trkpt lat="48.819040000" lon="10.156477000">
        <ele>586.000</ele>
        <time>2026-08-27T15:34:34Z</time>
      </trkpt>
      <trkpt lat="48.819057000" lon="10.156311000">
        <ele>584.900</ele>
        <time>2026-08-27T15:34:35Z</time>
      </trkpt>
      <trkpt lat="48.819049000" lon="10.156136000">
        <ele>583.700</ele>
        <time>2026-08-27T15:34:36Z</time>
      </trkpt>
      <trkpt lat="48.819052000" lon="10.155760000">
        <ele>581.200</ele>
        <time>2026-08-27T15:34:38Z</time>
      </trkpt>
      <trkpt lat="48.819085000" lon="10.155571000">
        <ele>579.800</ele>
        <time>2026-08-27T15:34:39Z</time>
      </trkpt>
      <trkpt lat="48.819067000" lon="10.155262000">
        <ele>577.600</ele>
        <time>2026-08-27T15:34:41Z</time>
      </trkpt>
      <trkpt lat="48.819030000" lon="10.155144000">
        <ele>576.700</ele>
        <time>2026-08-27T15:34:42Z</time>
      </trkpt>
      <trkpt lat="48.818998000" lon="10.154950000">
        <ele>575.300</ele>
        <time>2026-08-27T15:34:43Z</time>
      </trkpt>
      <trkpt lat="48.818904000" lon="10.154689000">
        <ele>573.300</ele>
        <time>2026-08-27T15:34:45Z</time>
      </trkpt>
      <trkpt lat="48.818833000" lon="10.154361000">
        <ele>571.000</ele>
        <time>2026-08-27T15:34:47Z</time>
      </trkpt>
      <trkpt lat="48.818831000" lon="10.154195000">
        <ele>569.900</ele>
        <time>2026-08-27T15:34:48Z</time>
      </trkpt>
      <trkpt lat="48.818815000" lon="10.154021000">
        <ele>568.800</ele>
        <time>2026-08-27T15:34:49Z</time>
      </trkpt>
      <trkpt lat="48.818813000" lon="10.153808000">
        <ele>567.300</ele>
        <time>2026-08-27T15:34:50Z</time>
      </trkpt>
      <trkpt lat="48.818778000" lon="10.153611000">
        <ele>566.000</ele>
        <time>2026-08-27T15:34:51Z</time>
      </trkpt>
      <trkpt lat="48.818773000" lon="10.153413000">
        <ele>564.800</ele>
        <time>2026-08-27T15:34:52Z</time>
      </trkpt>
      <trkpt lat="48.818790000" lon="10.153033000">
        <ele>562.300</ele>
        <time>2026-08-27T15:34:54Z</time>
      </trkpt>
      <trkpt lat="48.818721000" lon="10.152839000">
        <ele>560.800</ele>
        <time>2026-08-27T15:34:55Z</time>
      </trkpt>
      <trkpt lat="48.818691000" lon="10.152660000">
        <ele>559.700</ele>
        <time>2026-08-27T15:34:56Z</time>
      </trkpt>
      <trkpt lat="48.818704000" lon="10.152480000">
        <ele>558.500</ele>
        <time>2026-08-27T15:34:57Z</time>
      </trkpt>
      <trkpt lat="48.818654000" lon="10.152056000">
        <ele>555.900</ele>
        <time>2026-08-27T15:34:59Z</time>
      </trkpt>
      <trkpt lat="48.818568000" lon="10.151705000">
        <ele>554.100</ele>
        <time>2026-08-27T15:35:01Z</time>
      </trkpt>
      <trkpt lat="48.818463000" lon="10.151471000">
        <ele>553.100</ele>
        <time>2026-08-27T15:35:03Z</time>
      </trkpt>
      <trkpt lat="48.818396000" lon="10.151427000">
        <ele>552.700</ele>
        <time>2026-08-27T15:35:04Z</time>
      </trkpt>
      <trkpt lat="48.818262000" lon="10.151444000">
        <ele>552.100</ele>
        <time>2026-08-27T15:35:06Z</time>
      </trkpt>
      <trkpt lat="48.818182000" lon="10.151433000">
        <ele>551.800</ele>
        <time>2026-08-27T15:35:08Z</time>
      </trkpt>
      <trkpt lat="48.818062000" lon="10.151462000">
        <ele>551.400</ele>
        <time>2026-08-27T15:35:10Z</time>
      </trkpt>
      <trkpt lat="48.817959000" lon="10.151452000">
        <ele>551.000</ele>
        <time>2026-08-27T15:35:12Z</time>
      </trkpt>
      <trkpt lat="48.817796000" lon="10.151383000">
        <ele>550.400</ele>
        <time>2026-08-27T15:35:14Z</time>
      </trkpt>
      <trkpt lat="48.817594000" lon="10.151209000">
        <ele>549.700</ele>
        <time>2026-08-27T15:35:16Z</time>
      </trkpt>
      <trkpt lat="48.817465000" lon="10.150982000">
        <ele>549.100</ele>
        <time>2026-08-27T15:35:18Z</time>
      </trkpt>
      <trkpt lat="48.817418000" lon="10.150875000">
        <ele>548.700</ele>
        <time>2026-08-27T15:35:19Z</time>
      </trkpt>
      <trkpt lat="48.817370000" lon="10.150469000">
        <ele>546.600</ele>
        <time>2026-08-27T15:35:23Z</time>
      </trkpt>
      <trkpt lat="48.817243000" lon="10.150217000">
        <ele>544.400</ele>
        <time>2026-08-27T15:35:25Z</time>
      </trkpt>
      <trkpt lat="48.817172000" lon="10.150116000">
        <ele>543.300</ele>
        <time>2026-08-27T15:35:26Z</time>
      </trkpt>
      <trkpt lat="48.817044000" lon="10.149829000">
        <ele>540.600</ele>
        <time>2026-08-27T15:35:28Z</time>
      </trkpt>
      <trkpt lat="48.816969000" lon="10.149723000">
        <ele>539.400</ele>
        <time>2026-08-27T15:35:29Z</time>
      </trkpt>
      <trkpt lat="48.816898000" lon="10.149582000">
        <ele>538.100</ele>
        <time>2026-08-27T15:35:30Z</time>
      </trkpt>
      <trkpt lat="48.816866000" lon="10.149383000">
        <ele>536.500</ele>
        <time>2026-08-27T15:35:31Z</time>
      </trkpt>
      <trkpt lat="48.816870000" lon="10.149155000">
        <ele>534.800</ele>
        <time>2026-08-27T15:35:32Z</time>
      </trkpt>
      <trkpt lat="48.816861000" lon="10.148942000">
        <ele>533.400</ele>
        <time>2026-08-27T15:35:33Z</time>
      </trkpt>
      <trkpt lat="48.816791000" lon="10.148651000">
        <ele>531.400</ele>
        <time>2026-08-27T15:35:35Z</time>
      </trkpt>
      <trkpt lat="48.816752000" lon="10.148441000">
        <ele>529.900</ele>
        <time>2026-08-27T15:35:36Z</time>
      </trkpt>
      <trkpt lat="48.816752000" lon="10.148269000">
        <ele>528.900</ele>
        <time>2026-08-27T15:35:37Z</time>
      </trkpt>
      <trkpt lat="48.816705000" lon="10.148115000">
        <ele>527.800</ele>
        <time>2026-08-27T15:35:38Z</time>
      </trkpt>
      <trkpt lat="48.816695000" lon="10.147947000">
        <ele>526.700</ele>
        <time>2026-08-27T15:35:39Z</time>
      </trkpt>
      <trkpt lat="48.816699000" lon="10.147721000">
        <ele>525.300</ele>
        <time>2026-08-27T15:35:40Z</time>
      </trkpt>
      <trkpt lat="48.816641000" lon="10.147233000">
        <ele>522.200</ele>
        <time>2026-08-27T15:35:43Z</time>
      </trkpt>
      <trkpt lat="48.816637000" lon="10.147047000">
        <ele>521.100</ele>
        <time>2026-08-27T15:35:44Z</time>
      </trkpt>
      <trkpt lat="48.816649000" lon="10.146882000">
        <ele>520.200</ele>
        <time>2026-08-27T15:35:45Z</time>
      </trkpt>
      <trkpt lat="48.816603000" lon="10.146547000">
        <ele>518.000</ele>
        <time>2026-08-27T15:35:47Z</time>
      </trkpt>
      <trkpt lat="48.816625000" lon="10.146176000">
        <ele>515.200</ele>
        <time>2026-08-27T15:35:49Z</time>
      </trkpt>
      <trkpt lat="48.816576000" lon="10.146060000">
        <ele>514.200</ele>
        <time>2026-08-27T15:35:50Z</time>
      </trkpt>
      <trkpt lat="48.816562000" lon="10.145904000">
        <ele>513.200</ele>
        <time>2026-08-27T15:35:51Z</time>
      </trkpt>
      <trkpt lat="48.816516000" lon="10.145763000">
        <ele>512.200</ele>
        <time>2026-08-27T15:35:52Z</time>
      </trkpt>
      <trkpt lat="48.816434000" lon="10.145701000">
        <ele>511.300</ele>
        <time>2026-08-27T15:35:53Z</time>
      </trkpt>
      <trkpt lat="48.816390000" lon="10.145614000">
        <ele>510.600</ele>
        <time>2026-08-27T15:35:54Z</time>
      </trkpt>
      <trkpt lat="48.816322000" lon="10.145520000">
        <ele>509.700</ele>
        <time>2026-08-27T15:35:55Z</time>
      </trkpt>
      <trkpt lat="48.816251000" lon="10.145453000">
        <ele>508.800</ele>
        <time>2026-08-27T15:35:56Z</time>
      </trkpt>
      <trkpt lat="48.816177000" lon="10.145347000">
        <ele>507.700</ele>
        <time>2026-08-27T15:35:57Z</time>
      </trkpt>
      <trkpt lat="48.816130000" lon="10.145244000">
        <ele>506.700</ele>
        <time>2026-08-27T15:35:58Z</time>
      </trkpt>
      <trkpt lat="48.816083000" lon="10.145037000">
        <ele>505.300</ele>
        <time>2026-08-27T15:35:59Z</time>
      </trkpt>
      <trkpt lat="48.816075000" lon="10.144834000">
        <ele>504.600</ele>
        <time>2026-08-27T15:36:00Z</time>
      </trkpt>
      <trkpt lat="48.816099000" lon="10.144388000">
        <ele>499.900</ele>
        <time>2026-08-27T15:36:03Z</time>
      </trkpt>
      <trkpt lat="48.816094000" lon="10.144214000">
        <ele>498.100</ele>
        <time>2026-08-27T15:36:04Z</time>
      </trkpt>
      <trkpt lat="48.816130000" lon="10.143942000">
        <ele>495.100</ele>
        <time>2026-08-27T15:36:06Z</time>
      </trkpt>
      <trkpt lat="48.816162000" lon="10.143795000">
        <ele>493.600</ele>
        <time>2026-08-27T15:36:07Z</time>
      </trkpt>
      <trkpt lat="48.816223000" lon="10.143637000">
        <ele>491.800</ele>
        <time>2026-08-27T15:36:08Z</time>
      </trkpt>
      <trkpt lat="48.816374000" lon="10.143391000">
        <ele>488.900</ele>
        <time>2026-08-27T15:36:10Z</time>
      </trkpt>
      <trkpt lat="48.816471000" lon="10.143118000">
        <ele>486.700</ele>
        <time>2026-08-27T15:36:12Z</time>
      </trkpt>
      <trkpt lat="48.816502000" lon="10.142960000">
        <ele>485.600</ele>
        <time>2026-08-27T15:36:13Z</time>
      </trkpt>
      <trkpt lat="48.816511000" lon="10.142787000">
        <ele>485.100</ele>
        <time>2026-08-27T15:36:14Z</time>
      </trkpt>
      <trkpt lat="48.816555000" lon="10.142474000">
        <ele>484.400</ele>
        <time>2026-08-27T15:36:16Z</time>
      </trkpt>
      <trkpt lat="48.816584000" lon="10.141849000">
        <ele>482.900</ele>
        <time>2026-08-27T15:36:20Z</time>
      </trkpt>
      <trkpt lat="48.816603000" lon="10.141695000">
        <ele>482.500</ele>
        <time>2026-08-27T15:36:21Z</time>
      </trkpt>
      <trkpt lat="48.816598000" lon="10.141556000">
        <ele>482.400</ele>
        <time>2026-08-27T15:36:22Z</time>
      </trkpt>
      <trkpt lat="48.816614000" lon="10.141405000">
        <ele>482.100</ele>
        <time>2026-08-27T15:36:23Z</time>
      </trkpt>
      <trkpt lat="48.816620000" lon="10.141100000">
        <ele>481.500</ele>
        <time>2026-08-27T15:36:25Z</time>
      </trkpt>
      <trkpt lat="48.816637000" lon="10.140941000">
        <ele>481.100</ele>
        <time>2026-08-27T15:36:26Z</time>
      </trkpt>
      <trkpt lat="48.816648000" lon="10.140682000">
        <ele>480.600</ele>
        <time>2026-08-27T15:36:28Z</time>
      </trkpt>
      <trkpt lat="48.816688000" lon="10.140292000">
        <ele>479.900</ele>
        <time>2026-08-27T15:36:31Z</time>
      </trkpt>
      <trkpt lat="48.816718000" lon="10.140159000">
        <ele>479.600</ele>
        <time>2026-08-27T15:36:32Z</time>
      </trkpt>
      <trkpt lat="48.816729000" lon="10.139914000">
        <ele>479.000</ele>
        <time>2026-08-27T15:36:34Z</time>
      </trkpt>
      <trkpt lat="48.816690000" lon="10.139288000">
        <ele>477.800</ele>
        <time>2026-08-27T15:36:39Z</time>
      </trkpt>
      <trkpt lat="48.816637000" lon="10.138933000">
        <ele>477.100</ele>
        <time>2026-08-27T15:36:42Z</time>
      </trkpt>
      <trkpt lat="48.816453000" lon="10.138255000">
        <ele>475.900</ele>
        <time>2026-08-27T15:36:48Z</time>
      </trkpt>
      <trkpt lat="48.816436000" lon="10.138140000">
        <ele>475.700</ele>
        <time>2026-08-27T15:36:49Z</time>
      </trkpt>
      <trkpt lat="48.816345000" lon="10.137929000">
        <ele>475.300</ele>
        <time>2026-08-27T15:36:51Z</time>
      </trkpt>
      <trkpt lat="48.816268000" lon="10.137618000">
        <ele>474.800</ele>
        <time>2026-08-27T15:36:54Z</time>
      </trkpt>
      <trkpt lat="48.816206000" lon="10.137263000">
        <ele>474.400</ele>
        <time>2026-08-27T15:36:57Z</time>
      </trkpt>
      <trkpt lat="48.816134000" lon="10.137020000">
        <ele>474.000</ele>
        <time>2026-08-27T15:36:59Z</time>
      </trkpt>
      <trkpt lat="48.815984000" lon="10.136608000">
        <ele>473.400</ele>
        <time>2026-08-27T15:37:03Z</time>
      </trkpt>
      <trkpt lat="48.815961000" lon="10.136475000">
        <ele>473.200</ele>
        <time>2026-08-27T15:37:04Z</time>
      </trkpt>
      <trkpt lat="48.815918000" lon="10.136355000">
        <ele>473.000</ele>
        <time>2026-08-27T15:37:05Z</time>
      </trkpt>
      <trkpt lat="48.815881000" lon="10.136137000">
        <ele>472.800</ele>
        <time>2026-08-27T15:37:07Z</time>
      </trkpt>
      <trkpt lat="48.815885000" lon="10.136013000">
        <ele>472.600</ele>
        <time>2026-08-27T15:37:08Z</time>
      </trkpt>
      <trkpt lat="48.815848000" lon="10.135916000">
        <ele>472.500</ele>
        <time>2026-08-27T15:37:09Z</time>
      </trkpt>
      <trkpt lat="48.815810000" lon="10.135666000">
        <ele>472.200</ele>
        <time>2026-08-27T15:37:11Z</time>
      </trkpt>
      <trkpt lat="48.815811000" lon="10.135512000">
        <ele>472.000</ele>
        <time>2026-08-27T15:37:12Z</time>
      </trkpt>
      <trkpt lat="48.815647000" lon="10.134781000">
        <ele>471.300</ele>
        <time>2026-08-27T15:37:19Z</time>
      </trkpt>
      <trkpt lat="48.815668000" lon="10.134658000">
        <ele>471.200</ele>
        <time>2026-08-27T15:37:20Z</time>
      </trkpt>
      <trkpt lat="48.815642000" lon="10.134460000">
        <ele>471.000</ele>
        <time>2026-08-27T15:37:22Z</time>
      </trkpt>
      <trkpt lat="48.815654000" lon="10.134103000">
        <ele>470.700</ele>
        <time>2026-08-27T15:37:25Z</time>
      </trkpt>
      <trkpt lat="48.815641000" lon="10.133965000">
        <ele>470.500</ele>
        <time>2026-08-27T15:37:26Z</time>
      </trkpt>
      <trkpt lat="48.815655000" lon="10.133647000">
        <ele>470.200</ele>
        <time>2026-08-27T15:37:29Z</time>
      </trkpt>
      <trkpt lat="48.815642000" lon="10.133402000">
        <ele>469.900</ele>
        <time>2026-08-27T15:37:31Z</time>
      </trkpt>
      <trkpt lat="48.815710000" lon="10.133035000">
        <ele>469.500</ele>
        <time>2026-08-27T15:37:35Z</time>
      </trkpt>
      <trkpt lat="48.815761000" lon="10.132866000">
        <ele>469.300</ele>
        <time>2026-08-27T15:37:37Z</time>
      </trkpt>
      <trkpt lat="48.815761000" lon="10.132688000">
        <ele>469.100</ele>
        <time>2026-08-27T15:37:39Z</time>
      </trkpt>
      <trkpt lat="48.815827000" lon="10.132404000">
        <ele>468.700</ele>
        <time>2026-08-27T15:37:42Z</time>
      </trkpt>
      <trkpt lat="48.815845000" lon="10.132284000">
        <ele>468.500</ele>
        <time>2026-08-27T15:37:43Z</time>
      </trkpt>
      <trkpt lat="48.815892000" lon="10.132113000">
        <ele>468.200</ele>
        <time>2026-08-27T15:37:45Z</time>
      </trkpt>
      <trkpt lat="48.815927000" lon="10.131924000">
        <ele>468.000</ele>
        <time>2026-08-27T15:37:47Z</time>
      </trkpt>
      <trkpt lat="48.815982000" lon="10.131839000">
        <ele>467.800</ele>
        <time>2026-08-27T15:37:48Z</time>
      </trkpt>
      <trkpt lat="48.816077000" lon="10.131535000">
        <ele>467.500</ele>
        <time>2026-08-27T15:37:51Z</time>
      </trkpt>
      <trkpt lat="48.816141000" lon="10.131232000">
        <ele>467.200</ele>
        <time>2026-08-27T15:37:54Z</time>
      </trkpt>
      <trkpt lat="48.816112000" lon="10.131125000">
        <ele>467.100</ele>
        <time>2026-08-27T15:37:55Z</time>
      </trkpt>
      <trkpt lat="48.816092000" lon="10.130914000">
        <ele>467.000</ele>
        <time>2026-08-27T15:37:57Z</time>
      </trkpt>
      <trkpt lat="48.816106000" lon="10.130287000">
        <ele>466.800</ele>
        <time>2026-08-27T15:38:03Z</time>
      </trkpt>
      <trkpt lat="48.816077000" lon="10.129911000">
        <ele>466.800</ele>
        <time>2026-08-27T15:38:07Z</time>
      </trkpt>
      <trkpt lat="48.816078000" lon="10.129746000">
        <ele>466.700</ele>
        <time>2026-08-27T15:38:09Z</time>
      </trkpt>
      <trkpt lat="48.816061000" lon="10.129629000">
        <ele>466.600</ele>
        <time>2026-08-27T15:38:10Z</time>
      </trkpt>
      <trkpt lat="48.816077000" lon="10.129519000">
        <ele>466.600</ele>
        <time>2026-08-27T15:38:11Z</time>
      </trkpt>
      <trkpt lat="48.816080000" lon="10.129320000">
        <ele>466.500</ele>
        <time>2026-08-27T15:38:13Z</time>
      </trkpt>
      <trkpt lat="48.816111000" lon="10.128900000">
        <ele>466.100</ele>
        <time>2026-08-27T15:38:17Z</time>
      </trkpt>
      <trkpt lat="48.816109000" lon="10.128664000">
        <ele>465.700</ele>
        <time>2026-08-27T15:38:19Z</time>
      </trkpt>
      <trkpt lat="48.816149000" lon="10.128446000">
        <ele>465.400</ele>
        <time>2026-08-27T15:38:21Z</time>
      </trkpt>
      <trkpt lat="48.816139000" lon="10.128337000">
        <ele>465.300</ele>
        <time>2026-08-27T15:38:22Z</time>
      </trkpt>
      <trkpt lat="48.816264000" lon="10.128036000">
        <ele>464.900</ele>
        <time>2026-08-27T15:38:25Z</time>
      </trkpt>
      <trkpt lat="48.816291000" lon="10.127927000">
        <ele>464.700</ele>
        <time>2026-08-27T15:38:26Z</time>
      </trkpt>
      <trkpt lat="48.816286000" lon="10.127718000">
        <ele>464.400</ele>
        <time>2026-08-27T15:38:28Z</time>
      </trkpt>
      <trkpt lat="48.816325000" lon="10.127528000">
        <ele>464.100</ele>
        <time>2026-08-27T15:38:30Z</time>
      </trkpt>
      <trkpt lat="48.816377000" lon="10.127171000">
        <ele>463.500</ele>
        <time>2026-08-27T15:38:34Z</time>
      </trkpt>
      <trkpt lat="48.816379000" lon="10.127007000">
        <ele>463.300</ele>
        <time>2026-08-27T15:38:36Z</time>
      </trkpt>
      <trkpt lat="48.816361000" lon="10.126693000">
        <ele>462.900</ele>
        <time>2026-08-27T15:38:40Z</time>
      </trkpt>
      <trkpt lat="48.816410000" lon="10.126590000">
        <ele>462.600</ele>
        <time>2026-08-27T15:38:41Z</time>
      </trkpt>
      <trkpt lat="48.816427000" lon="10.126451000">
        <ele>462.300</ele>
        <time>2026-08-27T15:38:43Z</time>
      </trkpt>
      <trkpt lat="48.816556000" lon="10.126136000">
        <ele>461.600</ele>
        <time>2026-08-27T15:38:47Z</time>
      </trkpt>
      <trkpt lat="48.816701000" lon="10.125867000">
        <ele>461.200</ele>
        <time>2026-08-27T15:38:51Z</time>
      </trkpt>
      <trkpt lat="48.816737000" lon="10.125770000">
        <ele>461.000</ele>
        <time>2026-08-27T15:38:52Z</time>
      </trkpt>
      <trkpt lat="48.816979000" lon="10.125352000">
        <ele>460.300</ele>
        <time>2026-08-27T15:38:58Z</time>
      </trkpt>
      <trkpt lat="48.817089000" lon="10.125288000">
        <ele>460.200</ele>
        <time>2026-08-27T15:39:00Z</time>
      </trkpt>
      <trkpt lat="48.817273000" lon="10.124924000">
        <ele>459.900</ele>
        <time>2026-08-27T15:39:05Z</time>
      </trkpt>
      <trkpt lat="48.817336000" lon="10.124630000">
        <ele>459.600</ele>
        <time>2026-08-27T15:39:09Z</time>
      </trkpt>
      <trkpt lat="48.817411000" lon="10.124376000">
        <ele>459.600</ele>
        <time>2026-08-27T15:39:12Z</time>
      </trkpt>
      <trkpt lat="48.817430000" lon="10.124240000">
        <ele>459.600</ele>
        <time>2026-08-27T15:39:14Z</time>
      </trkpt>
      <trkpt lat="48.817467000" lon="10.124136000">
        <ele>459.600</ele>
        <time>2026-08-27T15:39:16Z</time>
      </trkpt>
      <trkpt lat="48.817596000" lon="10.123936000">
        <ele>459.300</ele>
        <time>2026-08-27T15:39:20Z</time>
      </trkpt>
      <trkpt lat="48.817716000" lon="10.123837000">
        <ele>459.000</ele>
        <time>2026-08-27T15:39:22Z</time>
      </trkpt>
      <trkpt lat="48.817805000" lon="10.123741000">
        <ele>459.000</ele>
        <time>2026-08-27T15:39:24Z</time>
      </trkpt>
      <trkpt lat="48.817912000" lon="10.123692000">
        <ele>458.900</ele>
        <time>2026-08-27T15:39:26Z</time>
      </trkpt>
      <trkpt lat="48.817971000" lon="10.123567000">
        <ele>458.800</ele>
        <time>2026-08-27T15:39:28Z</time>
      </trkpt>
      <trkpt lat="48.818039000" lon="10.123467000">
        <ele>458.700</ele>
        <time>2026-08-27T15:39:30Z</time>
      </trkpt>
      <trkpt lat="48.818126000" lon="10.123470000">
        <ele>458.600</ele>
        <time>2026-08-27T15:39:33Z</time>
      </trkpt>
      <trkpt lat="48.818198000" lon="10.123360000">
        <ele>458.400</ele>
        <time>2026-08-27T15:39:39Z</time>
      </trkpt>
      <trkpt lat="48.818279000" lon="10.123268000">
        <ele>458.200</ele>
        <time>2026-08-27T15:39:41Z</time>
      </trkpt>
      <trkpt lat="48.818452000" lon="10.123228000">
        <ele>458.200</ele>
        <time>2026-08-27T15:39:48Z</time>
      </trkpt>
      <trkpt lat="48.818524000" lon="10.123158000">
        <ele>458.100</ele>
        <time>2026-08-27T15:39:51Z</time>
      </trkpt>
      <trkpt lat="48.818582000" lon="10.123052000">
        <ele>457.900</ele>
        <time>2026-08-27T15:39:53Z</time>
      </trkpt>
      <trkpt lat="48.818716000" lon="10.122910000">
        <ele>457.700</ele>
        <time>2026-08-27T15:39:57Z</time>
      </trkpt>
      <trkpt lat="48.818785000" lon="10.122814000">
        <ele>457.500</ele>
        <time>2026-08-27T15:39:59Z</time>
      </trkpt>
      <trkpt lat="48.818872000" lon="10.122746000">
        <ele>457.400</ele>
        <time>2026-08-27T15:40:01Z</time>
      </trkpt>
      <trkpt lat="48.818895000" lon="10.122642000">
        <ele>457.200</ele>
        <time>2026-08-27T15:40:03Z</time>
      </trkpt>
      <trkpt lat="48.818962000" lon="10.122523000">
        <ele>457.100</ele>
        <time>2026-08-27T15:40:05Z</time>
      </trkpt>
      <trkpt lat="48.819010000" lon="10.122389000">
        <ele>457.000</ele>
        <time>2026-08-27T15:40:07Z</time>
      </trkpt>
      <trkpt lat="48.819281000" lon="10.121937000">
        <ele>456.800</ele>
        <time>2026-08-27T15:40:15Z</time>
      </trkpt>
      <trkpt lat="48.819436000" lon="10.121737000">
        <ele>456.700</ele>
        <time>2026-08-27T15:40:19Z</time>
      </trkpt>
      <trkpt lat="48.819500000" lon="10.121628000">
        <ele>456.600</ele>
        <time>2026-08-27T15:40:21Z</time>
      </trkpt>
      <trkpt lat="48.819550000" lon="10.121477000">
        <ele>456.700</ele>
        <time>2026-08-27T15:40:23Z</time>
      </trkpt>
      <trkpt lat="48.819603000" lon="10.121360000">
        <ele>456.700</ele>
        <time>2026-08-27T15:40:25Z</time>
      </trkpt>
      <trkpt lat="48.819682000" lon="10.121276000">
        <ele>456.600</ele>
        <time>2026-08-27T15:40:27Z</time>
      </trkpt>
      <trkpt lat="48.820225000" lon="10.120950000">
        <ele>456.100</ele>
        <time>2026-08-27T15:40:37Z</time>
      </trkpt>
      <trkpt lat="48.820553000" lon="10.120780000">
        <ele>455.900</ele>
        <time>2026-08-27T15:40:43Z</time>
      </trkpt>
      <trkpt lat="48.820676000" lon="10.120734000">
        <ele>455.600</ele>
        <time>2026-08-27T15:40:45Z</time>
      </trkpt>
      <trkpt lat="48.820801000" lon="10.120659000">
        <ele>455.300</ele>
        <time>2026-08-27T15:40:47Z</time>
      </trkpt>
      <trkpt lat="48.821038000" lon="10.120566000">
        <ele>454.600</ele>
        <time>2026-08-27T15:40:51Z</time>
      </trkpt>
      <trkpt lat="48.821395000" lon="10.120528000">
        <ele>454.000</ele>
        <time>2026-08-27T15:40:57Z</time>
      </trkpt>
      <trkpt lat="48.821501000" lon="10.120484000">
        <ele>453.900</ele>
        <time>2026-08-27T15:40:59Z</time>
      </trkpt>
      <trkpt lat="48.821842000" lon="10.120462000">
        <ele>453.200</ele>
        <time>2026-08-27T15:41:05Z</time>
      </trkpt>
      <trkpt lat="48.821953000" lon="10.120424000">
        <ele>453.000</ele>
        <time>2026-08-27T15:41:07Z</time>
      </trkpt>
      <trkpt lat="48.822066000" lon="10.120418000">
        <ele>452.800</ele>
        <time>2026-08-27T15:41:09Z</time>
      </trkpt>
      <trkpt lat="48.822275000" lon="10.120370000">
        <ele>452.400</ele>
        <time>2026-08-27T15:41:13Z</time>
      </trkpt>
      <trkpt lat="48.822838000" lon="10.120331000">
        <ele>451.500</ele>
        <time>2026-08-27T15:41:23Z</time>
      </trkpt>
      <trkpt lat="48.823060000" lon="10.120290000">
        <ele>451.100</ele>
        <time>2026-08-27T15:41:27Z</time>
      </trkpt>
      <trkpt lat="48.823175000" lon="10.120291000">
        <ele>450.900</ele>
        <time>2026-08-27T15:41:29Z</time>
      </trkpt>
      <trkpt lat="48.823380000" lon="10.120263000">
        <ele>450.600</ele>
        <time>2026-08-27T15:41:33Z</time>
      </trkpt>
      <trkpt lat="48.823577000" lon="10.120210000">
        <ele>450.300</ele>
        <time>2026-08-27T15:41:37Z</time>
      </trkpt>
      <trkpt lat="48.823690000" lon="10.120207000">
        <ele>450.200</ele>
        <time>2026-08-27T15:41:39Z</time>
      </trkpt>
      <trkpt lat="48.823912000" lon="10.120115000">
        <ele>450.000</ele>
        <time>2026-08-27T15:41:43Z</time>
      </trkpt>
      <trkpt lat="48.824140000" lon="10.120057000">
        <ele>449.800</ele>
        <time>2026-08-27T15:41:47Z</time>
      </trkpt>
      <trkpt lat="48.824485000" lon="10.119916000">
        <ele>449.500</ele>
        <time>2026-08-27T15:41:53Z</time>
      </trkpt>
      <trkpt lat="48.824613000" lon="10.119894000">
        <ele>449.600</ele>
        <time>2026-08-27T15:41:55Z</time>
      </trkpt>
      <trkpt lat="48.824828000" lon="10.119794000">
        <ele>450.000</ele>
        <time>2026-08-27T15:41:59Z</time>
      </trkpt>
      <trkpt lat="48.824919000" lon="10.119711000">
        <ele>450.300</ele>
        <time>2026-08-27T15:42:01Z</time>
      </trkpt>
      <trkpt lat="48.825325000" lon="10.119507000">
        <ele>450.300</ele>
        <time>2026-08-27T15:42:09Z</time>
      </trkpt>
      <trkpt lat="48.825794000" lon="10.119169000">
        <ele>449.300</ele>
        <time>2026-08-27T15:42:17Z</time>
      </trkpt>
      <trkpt lat="48.825880000" lon="10.119027000">
        <ele>449.100</ele>
        <time>2026-08-27T15:42:19Z</time>
      </trkpt>
      <trkpt lat="48.826004000" lon="10.118941000">
        <ele>449.000</ele>
        <time>2026-08-27T15:42:21Z</time>
      </trkpt>
      <trkpt lat="48.826108000" lon="10.118835000">
        <ele>448.800</ele>
        <time>2026-08-27T15:42:23Z</time>
      </trkpt>
      <trkpt lat="48.826230000" lon="10.118746000">
        <ele>448.700</ele>
        <time>2026-08-27T15:42:25Z</time>
      </trkpt>
      <trkpt lat="48.826335000" lon="10.118629000">
        <ele>448.600</ele>
        <time>2026-08-27T15:42:27Z</time>
      </trkpt>
      <trkpt lat="48.826448000" lon="10.118551000">
        <ele>448.500</ele>
        <time>2026-08-27T15:42:29Z</time>
      </trkpt>
      <trkpt lat="48.826510000" lon="10.118425000">
        <ele>448.400</ele>
        <time>2026-08-27T15:42:31Z</time>
      </trkpt>
      <trkpt lat="48.826586000" lon="10.118315000">
        <ele>448.400</ele>
        <time>2026-08-27T15:42:33Z</time>
      </trkpt>
      <trkpt lat="48.826670000" lon="10.118159000">
        <ele>448.300</ele>
        <time>2026-08-27T15:42:35Z</time>
      </trkpt>
      <trkpt lat="48.826478000" lon="10.117690000">
        <ele>447.800</ele>
        <time>2026-08-27T15:42:41Z</time>
      </trkpt>
      <trkpt lat="48.826422000" lon="10.117511000">
        <ele>447.700</ele>
        <time>2026-08-27T15:42:43Z</time>
      </trkpt>
      <trkpt lat="48.826346000" lon="10.117369000">
        <ele>447.600</ele>
        <time>2026-08-27T15:42:45Z</time>
      </trkpt>
      <trkpt lat="48.826304000" lon="10.117196000">
        <ele>447.500</ele>
        <time>2026-08-27T15:42:47Z</time>
      </trkpt>
      <trkpt lat="48.826279000" lon="10.117003000">
        <ele>447.400</ele>
        <time>2026-08-27T15:42:49Z</time>
      </trkpt>
      <trkpt lat="48.826286000" lon="10.116805000">
        <ele>447.300</ele>
        <time>2026-08-27T15:42:51Z</time>
      </trkpt>
      <trkpt lat="48.826371000" lon="10.116398000">
        <ele>447.200</ele>
        <time>2026-08-27T15:42:55Z</time>
      </trkpt>
      <trkpt lat="48.826458000" lon="10.116122000">
        <ele>447.000</ele>
        <time>2026-08-27T15:42:58Z</time>
      </trkpt>
      <trkpt lat="48.826626000" lon="10.115805000">
        <ele>446.800</ele>
        <time>2026-08-27T15:43:02Z</time>
      </trkpt>
      <trkpt lat="48.826797000" lon="10.115387000">
        <ele>446.500</ele>
        <time>2026-08-27T15:43:07Z</time>
      </trkpt>
      <trkpt lat="48.826881000" lon="10.115217000">
        <ele>446.300</ele>
        <time>2026-08-27T15:43:09Z</time>
      </trkpt>
      <trkpt lat="48.826930000" lon="10.115038000">
        <ele>446.200</ele>
        <time>2026-08-27T15:43:11Z</time>
      </trkpt>
      <trkpt lat="48.826994000" lon="10.114872000">
        <ele>446.000</ele>
        <time>2026-08-27T15:43:13Z</time>
      </trkpt>
      <trkpt lat="48.826979000" lon="10.114752000">
        <ele>445.900</ele>
        <time>2026-08-27T15:43:14Z</time>
      </trkpt>
      <trkpt lat="48.827098000" lon="10.114429000">
        <ele>445.700</ele>
        <time>2026-08-27T15:43:18Z</time>
      </trkpt>
      <trkpt lat="48.827241000" lon="10.113926000">
        <ele>445.400</ele>
        <time>2026-08-27T15:43:24Z</time>
      </trkpt>
      <trkpt lat="48.827252000" lon="10.113757000">
        <ele>445.300</ele>
        <time>2026-08-27T15:43:26Z</time>
      </trkpt>
      <trkpt lat="48.827361000" lon="10.113246000">
        <ele>444.900</ele>
        <time>2026-08-27T15:43:32Z</time>
      </trkpt>
      <trkpt lat="48.827414000" lon="10.112909000">
        <ele>444.700</ele>
        <time>2026-08-27T15:43:36Z</time>
      </trkpt>
      <trkpt lat="48.827485000" lon="10.112245000">
        <ele>444.200</ele>
        <time>2026-08-27T15:43:44Z</time>
      </trkpt>
      <trkpt lat="48.827487000" lon="10.111925000">
        <ele>444.000</ele>
        <time>2026-08-27T15:43:48Z</time>
      </trkpt>
      <trkpt lat="48.827475000" lon="10.111620000">
        <ele>443.800</ele>
        <time>2026-08-27T15:43:52Z</time>
      </trkpt>
      <trkpt lat="48.827517000" lon="10.111236000">
        <ele>443.600</ele>
        <time>2026-08-27T15:43:56Z</time>
      </trkpt>
      <trkpt lat="48.827484000" lon="10.111084000">
        <ele>443.500</ele>
        <time>2026-08-27T15:43:58Z</time>
      </trkpt>
      <trkpt lat="48.827478000" lon="10.110924000">
        <ele>443.500</ele>
        <time>2026-08-27T15:44:00Z</time>
      </trkpt>
      <trkpt lat="48.827493000" lon="10.110738000">
        <ele>443.400</ele>
        <time>2026-08-27T15:44:02Z</time>
      </trkpt>
      <trkpt lat="48.827467000" lon="10.110561000">
        <ele>443.300</ele>
        <time>2026-08-27T15:44:04Z</time>
      </trkpt>
      <trkpt lat="48.827511000" lon="10.110434000">
        <ele>443.200</ele>
        <time>2026-08-27T15:44:06Z</time>
      </trkpt>
      <trkpt lat="48.827551000" lon="10.109907000">
        <ele>442.800</ele>
        <time>2026-08-27T15:44:12Z</time>
      </trkpt>
      <trkpt lat="48.827730000" lon="10.108976000">
        <ele>442.200</ele>
        <time>2026-08-27T15:44:22Z</time>
      </trkpt>
      <trkpt lat="48.827787000" lon="10.108813000">
        <ele>442.000</ele>
        <time>2026-08-27T15:44:24Z</time>
      </trkpt>
      <trkpt lat="48.827922000" lon="10.108296000">
        <ele>441.700</ele>
        <time>2026-08-27T15:44:30Z</time>
      </trkpt>
      <trkpt lat="48.828039000" lon="10.107925000">
        <ele>441.600</ele>
        <time>2026-08-27T15:44:34Z</time>
      </trkpt>
      <trkpt lat="48.828115000" lon="10.107760000">
        <ele>441.500</ele>
        <time>2026-08-27T15:44:36Z</time>
      </trkpt>
      <trkpt lat="48.828178000" lon="10.107579000">
        <ele>441.400</ele>
        <time>2026-08-27T15:44:38Z</time>
      </trkpt>
      <trkpt lat="48.828196000" lon="10.107465000">
        <ele>441.400</ele>
        <time>2026-08-27T15:44:39Z</time>
      </trkpt>
      <trkpt lat="48.828268000" lon="10.107313000">
        <ele>441.400</ele>
        <time>2026-08-27T15:44:41Z</time>
      </trkpt>
      <trkpt lat="48.828435000" lon="10.106874000">
        <ele>441.300</ele>
        <time>2026-08-27T15:44:47Z</time>
      </trkpt>
      <trkpt lat="48.828506000" lon="10.106755000">
        <ele>441.300</ele>
        <time>2026-08-27T15:44:49Z</time>
      </trkpt>
      <trkpt lat="48.828540000" lon="10.106568000">
        <ele>441.400</ele>
        <time>2026-08-27T15:44:51Z</time>
      </trkpt>
      <trkpt lat="48.828612000" lon="10.106466000">
        <ele>441.400</ele>
        <time>2026-08-27T15:44:54Z</time>
      </trkpt>
      <trkpt lat="48.828705000" lon="10.106513000">
        <ele>441.600</ele>
        <time>2026-08-27T15:44:56Z</time>
      </trkpt>
      <trkpt lat="48.828847000" lon="10.106682000">
        <ele>441.800</ele>
        <time>2026-08-27T15:44:59Z</time>
      </trkpt>
      <trkpt lat="48.828939000" lon="10.106716000">
        <ele>441.800</ele>
        <time>2026-08-27T15:45:01Z</time>
      </trkpt>
      <trkpt lat="48.829028000" lon="10.106707000">
        <ele>441.700</ele>
        <time>2026-08-27T15:45:03Z</time>
      </trkpt>
      <trkpt lat="48.829121000" lon="10.106643000">
        <ele>441.600</ele>
        <time>2026-08-27T15:45:05Z</time>
      </trkpt>
      <trkpt lat="48.829213000" lon="10.106413000">
        <ele>441.400</ele>
        <time>2026-08-27T15:45:09Z</time>
      </trkpt>
      <trkpt lat="48.829288000" lon="10.106315000">
        <ele>441.200</ele>
        <time>2026-08-27T15:45:11Z</time>
      </trkpt>
      <trkpt lat="48.829383000" lon="10.106231000">
        <ele>441.000</ele>
        <time>2026-08-27T15:45:13Z</time>
      </trkpt>
      <trkpt lat="48.829594000" lon="10.106142000">
        <ele>440.700</ele>
        <time>2026-08-27T15:45:17Z</time>
      </trkpt>
      <trkpt lat="48.829992000" lon="10.105775000">
        <ele>440.700</ele>
        <time>2026-08-27T15:45:25Z</time>
      </trkpt>
      <trkpt lat="48.830062000" lon="10.105686000">
        <ele>440.700</ele>
        <time>2026-08-27T15:45:30Z</time>
      </trkpt>
      <trkpt lat="48.830111000" lon="10.105598000">
        <ele>440.800</ele>
        <time>2026-08-27T15:45:33Z</time>
      </trkpt>
      <trkpt lat="48.830114000" lon="10.105461000">
        <ele>440.900</ele>
        <time>2026-08-27T15:45:38Z</time>
      </trkpt>
      <trkpt lat="48.830098000" lon="10.105353000">
        <ele>441.000</ele>
        <time>2026-08-27T15:45:42Z</time>
      </trkpt>
      <trkpt lat="48.829999000" lon="10.105120000">
        <ele>441.000</ele>
        <time>2026-08-27T15:45:50Z</time>
      </trkpt>
      <trkpt lat="48.829880000" lon="10.104399000">
        <ele>440.500</ele>
        <time>2026-08-27T15:45:54Z</time>
      </trkpt>
      <trkpt lat="48.829701000" lon="10.103127000">
        <ele>439.200</ele>
        <time>2026-08-27T15:45:58Z</time>
      </trkpt>
      <trkpt lat="48.829705000" lon="10.103015000">
        <ele>439.000</ele>
        <time>2026-08-27T15:46:00Z</time>
      </trkpt>
      <trkpt lat="48.829760000" lon="10.102672000">
        <ele>438.700</ele>
        <time>2026-08-27T15:46:03Z</time>
      </trkpt>
      <trkpt lat="48.829811000" lon="10.102476000">
        <ele>438.400</ele>
        <time>2026-08-27T15:46:05Z</time>
      </trkpt>
      <trkpt lat="48.829927000" lon="10.102187000">
        <ele>438.100</ele>
        <time>2026-08-27T15:46:08Z</time>
      </trkpt>
      <trkpt lat="48.829988000" lon="10.101997000">
        <ele>438.000</ele>
        <time>2026-08-27T15:46:10Z</time>
      </trkpt>
      <trkpt lat="48.830077000" lon="10.101855000">
        <ele>437.800</ele>
        <time>2026-08-27T15:46:12Z</time>
      </trkpt>
      <trkpt lat="48.830128000" lon="10.101636000">
        <ele>437.600</ele>
        <time>2026-08-27T15:46:14Z</time>
      </trkpt>
      <trkpt lat="48.830192000" lon="10.101494000">
        <ele>437.400</ele>
        <time>2026-08-27T15:46:16Z</time>
      </trkpt>
      <trkpt lat="48.830282000" lon="10.101340000">
        <ele>437.300</ele>
        <time>2026-08-27T15:46:18Z</time>
      </trkpt>
      <trkpt lat="48.830309000" lon="10.101203000">
        <ele>437.100</ele>
        <time>2026-08-27T15:46:20Z</time>
      </trkpt>
      <trkpt lat="48.830417000" lon="10.101083000">
        <ele>437.000</ele>
        <time>2026-08-27T15:46:22Z</time>
      </trkpt>
      <trkpt lat="48.830505000" lon="10.100944000">
        <ele>436.900</ele>
        <time>2026-08-27T15:46:24Z</time>
      </trkpt>
      <trkpt lat="48.830601000" lon="10.100730000">
        <ele>436.700</ele>
        <time>2026-08-27T15:46:27Z</time>
      </trkpt>
      <trkpt lat="48.830674000" lon="10.100617000">
        <ele>436.700</ele>
        <time>2026-08-27T15:46:29Z</time>
      </trkpt>
      <trkpt lat="48.830854000" lon="10.100485000">
        <ele>436.600</ele>
        <time>2026-08-27T15:46:33Z</time>
      </trkpt>
      <trkpt lat="48.830934000" lon="10.100358000">
        <ele>436.600</ele>
        <time>2026-08-27T15:46:35Z</time>
      </trkpt>
      <trkpt lat="48.831216000" lon="10.100036000">
        <ele>436.300</ele>
        <time>2026-08-27T15:46:43Z</time>
      </trkpt>
      <trkpt lat="48.831365000" lon="10.099673000">
        <ele>436.000</ele>
        <time>2026-08-27T15:46:47Z</time>
      </trkpt>
      <trkpt lat="48.831492000" lon="10.099485000">
        <ele>435.900</ele>
        <time>2026-08-27T15:46:50Z</time>
      </trkpt>
      <trkpt lat="48.831584000" lon="10.099252000">
        <ele>435.800</ele>
        <time>2026-08-27T15:46:52Z</time>
      </trkpt>
      <trkpt lat="48.831706000" lon="10.099009000">
        <ele>435.900</ele>
        <time>2026-08-27T15:46:55Z</time>
      </trkpt>
      <trkpt lat="48.831930000" lon="10.098696000">
        <ele>436.500</ele>
        <time>2026-08-27T15:47:01Z</time>
      </trkpt>
      <trkpt lat="48.832002000" lon="10.098620000">
        <ele>436.700</ele>
        <time>2026-08-27T15:47:03Z</time>
      </trkpt>
      <trkpt lat="48.832042000" lon="10.098511000">
        <ele>437.000</ele>
        <time>2026-08-27T15:47:07Z</time>
      </trkpt>
      <trkpt lat="48.832098000" lon="10.098407000">
        <ele>437.100</ele>
        <time>2026-08-27T15:47:10Z</time>
      </trkpt>
      <trkpt lat="48.832289000" lon="10.098124000">
        <ele>436.600</ele>
        <time>2026-08-27T15:47:17Z</time>
      </trkpt>
      <trkpt lat="48.832481000" lon="10.097660000">
        <ele>436.400</ele>
        <time>2026-08-27T15:47:25Z</time>
      </trkpt>
      <trkpt lat="48.832626000" lon="10.097138000">
        <ele>436.300</ele>
        <time>2026-08-27T15:47:33Z</time>
      </trkpt>
      <trkpt lat="48.832696000" lon="10.096778000">
        <ele>435.900</ele>
        <time>2026-08-27T15:47:39Z</time>
      </trkpt>
      <trkpt lat="48.832798000" lon="10.096667000">
        <ele>435.600</ele>
        <time>2026-08-27T15:47:41Z</time>
      </trkpt>
      <trkpt lat="48.832904000" lon="10.096617000">
        <ele>435.300</ele>
        <time>2026-08-27T15:47:42Z</time>
      </trkpt>
      <trkpt lat="48.833000000" lon="10.096543000">
        <ele>435.100</ele>
        <time>2026-08-27T15:47:44Z</time>
      </trkpt>
      <trkpt lat="48.833181000" lon="10.096358000">
        <ele>434.700</ele>
        <time>2026-08-27T15:47:48Z</time>
      </trkpt>
      <trkpt lat="48.833441000" lon="10.096020000">
        <ele>434.100</ele>
        <time>2026-08-27T15:47:54Z</time>
      </trkpt>
      <trkpt lat="48.833519000" lon="10.095879000">
        <ele>434.000</ele>
        <time>2026-08-27T15:47:56Z</time>
      </trkpt>
      <trkpt lat="48.833621000" lon="10.095610000">
        <ele>433.900</ele>
        <time>2026-08-27T15:48:00Z</time>
      </trkpt>
      <trkpt lat="48.833713000" lon="10.095531000">
        <ele>433.900</ele>
        <time>2026-08-27T15:48:02Z</time>
      </trkpt>
      <trkpt lat="48.833774000" lon="10.095451000">
        <ele>434.000</ele>
        <time>2026-08-27T15:48:04Z</time>
      </trkpt>
      <trkpt lat="48.833911000" lon="10.095378000">
        <ele>434.100</ele>
        <time>2026-08-27T15:48:07Z</time>
      </trkpt>
      <trkpt lat="48.833989000" lon="10.095464000">
        <ele>434.100</ele>
        <time>2026-08-27T15:48:08Z</time>
      </trkpt>
      <trkpt lat="48.834068000" lon="10.095479000">
        <ele>434.100</ele>
        <time>2026-08-27T15:48:10Z</time>
      </trkpt>
      <trkpt lat="48.834132000" lon="10.095419000">
        <ele>434.000</ele>
        <time>2026-08-27T15:48:12Z</time>
      </trkpt>
      <trkpt lat="48.834424000" lon="10.094984000">
        <ele>433.800</ele>
        <time>2026-08-27T15:48:20Z</time>
      </trkpt>
      <trkpt lat="48.834520000" lon="10.094928000">
        <ele>433.900</ele>
        <time>2026-08-27T15:48:23Z</time>
      </trkpt>
      <trkpt lat="48.834665000" lon="10.095110000">
        <ele>433.500</ele>
        <time>2026-08-27T15:48:26Z</time>
      </trkpt>
      <trkpt lat="48.834700000" lon="10.095239000">
        <ele>433.200</ele>
        <time>2026-08-27T15:48:28Z</time>
      </trkpt>
      <trkpt lat="48.834754000" lon="10.095348000">
        <ele>433.000</ele>
        <time>2026-08-27T15:48:30Z</time>
      </trkpt>
      <trkpt lat="48.834885000" lon="10.095428000">
        <ele>432.900</ele>
        <time>2026-08-27T15:48:32Z</time>
      </trkpt>
      <trkpt lat="48.835055000" lon="10.095566000">
        <ele>432.800</ele>
        <time>2026-08-27T15:48:36Z</time>
      </trkpt>
      <trkpt lat="48.835336000" lon="10.095857000">
        <ele>433.100</ele>
        <time>2026-08-27T15:48:42Z</time>
      </trkpt>
      <trkpt lat="48.835514000" lon="10.095991000">
        <ele>433.400</ele>
        <time>2026-08-27T15:48:46Z</time>
      </trkpt>
      <trkpt lat="48.835665000" lon="10.096078000">
        <ele>433.700</ele>
        <time>2026-08-27T15:48:50Z</time>
      </trkpt>
      <trkpt lat="48.835750000" lon="10.096154000">
        <ele>433.900</ele>
        <time>2026-08-27T15:48:52Z</time>
      </trkpt>
      <trkpt lat="48.835841000" lon="10.096272000">
        <ele>434.100</ele>
        <time>2026-08-27T15:48:55Z</time>
      </trkpt>
      <trkpt lat="48.835937000" lon="10.096328000">
        <ele>434.300</ele>
        <time>2026-08-27T15:48:58Z</time>
      </trkpt>
      <trkpt lat="48.836104000" lon="10.096357000">
        <ele>434.400</ele>
        <time>2026-08-27T15:49:02Z</time>
      </trkpt>
      <trkpt lat="48.836528000" lon="10.096502000">
        <ele>434.200</ele>
        <time>2026-08-27T15:49:10Z</time>
      </trkpt>
      <trkpt lat="48.836731000" lon="10.096618000">
        <ele>433.900</ele>
        <time>2026-08-27T15:49:14Z</time>
      </trkpt>
      <trkpt lat="48.836960000" lon="10.096711000">
        <ele>433.000</ele>
        <time>2026-08-27T15:49:18Z</time>
      </trkpt>
      <trkpt lat="48.837053000" lon="10.096712000">
        <ele>432.600</ele>
        <time>2026-08-27T15:49:20Z</time>
      </trkpt>
      <trkpt lat="48.837124000" lon="10.096752000">
        <ele>432.300</ele>
        <time>2026-08-27T15:49:22Z</time>
      </trkpt>
      <trkpt lat="48.837188000" lon="10.096826000">
        <ele>432.000</ele>
        <time>2026-08-27T15:49:24Z</time>
      </trkpt>
      <trkpt lat="48.837282000" lon="10.096972000">
        <ele>431.500</ele>
        <time>2026-08-27T15:49:27Z</time>
      </trkpt>
      <trkpt lat="48.837349000" lon="10.097460000">
        <ele>431.900</ele>
        <time>2026-08-27T15:49:32Z</time>
      </trkpt>
      <trkpt lat="48.837349000" lon="10.097997000">
        <ele>433.800</ele>
        <time>2026-08-27T15:49:41Z</time>
      </trkpt>
      <trkpt lat="48.837382000" lon="10.098117000">
        <ele>434.100</ele>
        <time>2026-08-27T15:49:44Z</time>
      </trkpt>
      <trkpt lat="48.837475000" lon="10.098173000">
        <ele>434.300</ele>
        <time>2026-08-27T15:49:47Z</time>
      </trkpt>
      <trkpt lat="48.837571000" lon="10.098184000">
        <ele>434.500</ele>
        <time>2026-08-27T15:49:50Z</time>
      </trkpt>
      <trkpt lat="48.837663000" lon="10.098150000">
        <ele>434.700</ele>
        <time>2026-08-27T15:49:53Z</time>
      </trkpt>
      <trkpt lat="48.837807000" lon="10.097990000">
        <ele>434.700</ele>
        <time>2026-08-27T15:49:58Z</time>
      </trkpt>
      <trkpt lat="48.837933000" lon="10.097770000">
        <ele>434.700</ele>
        <time>2026-08-27T15:50:02Z</time>
      </trkpt>
      <trkpt lat="48.838075000" lon="10.097440000">
        <ele>434.500</ele>
        <time>2026-08-27T15:50:08Z</time>
      </trkpt>
      <trkpt lat="48.838160000" lon="10.097328000">
        <ele>434.400</ele>
        <time>2026-08-27T15:50:10Z</time>
      </trkpt>
      <trkpt lat="48.838292000" lon="10.097293000">
        <ele>434.400</ele>
        <time>2026-08-27T15:50:12Z</time>
      </trkpt>
    </trkseg>
  </trk>
</gpx>
